sensor_id;sensor_type;location;lat;lon;timestamp;P1;durP1;ratioP1;P2;durP2;ratioP2
77350;SDS011;66420;50.246;14.320;2023-04-06T00:00:47;32.42;;;13.45;;
77350;SDS011;66420;50.246;14.320;2023-04-06T00:03:33;27.13;;;11.88;;
77350;SDS011;66420;50.246;14.320;2023-04-06T00:06:18;24.52;;;11.70;;
77350;SDS011;66420;50.246;14.320;2023-04-06T00:09:04;28.38;;;12.90;;
77350;SDS011;66420;50.246;14.320;2023-04-06T00:11:48;27.45;;;11.50;;
77350;SDS011;66420;50.246;14.320;2023-04-06T00:14:33;25.45;;;11.38;;
77350;SDS011;66420;50.246;14.320;2023-04-06T00:17:18;25.85;;;11.77;;
77350;SDS011;66420;50.246;14.320;2023-04-06T00:20:04;23.77;;;10.40;;
77350;SDS011;66420;50.246;14.320;2023-04-06T00:22:49;23.02;;;10.38;;
77350;SDS011;66420;50.246;14.320;2023-04-06T00:25:37;27.42;;;11.68;;
77350;SDS011;66420;50.246;14.320;2023-04-06T00:28:22;23.65;;;10.52;;
77350;SDS011;66420;50.246;14.320;2023-04-06T00:31:10;26.17;;;12.38;;
77350;SDS011;66420;50.246;14.320;2023-04-06T00:33:54;22.30;;;11.25;;
77350;SDS011;66420;50.246;14.320;2023-04-06T00:36:39;25.20;;;11.55;;
77350;SDS011;66420;50.246;14.320;2023-04-06T00:39:24;25.15;;;10.35;;
77350;SDS011;66420;50.246;14.320;2023-04-06T00:45:22;23.75;;;11.25;;
77350;SDS011;66420;50.246;14.320;2023-04-06T00:48:06;24.27;;;10.90;;
77350;SDS011;66420;50.246;14.320;2023-04-06T00:50:52;22.23;;;10.30;;
77350;SDS011;66420;50.246;14.320;2023-04-06T00:53:36;23.15;;;11.05;;
77350;SDS011;66420;50.246;14.320;2023-04-06T00:56:21;22.55;;;10.07;;
77350;SDS011;66420;50.246;14.320;2023-04-06T00:59:07;28.52;;;12.40;;
77350;SDS011;66420;50.246;14.320;2023-04-06T01:01:52;20.48;;;9.00;;
77350;SDS011;66420;50.246;14.320;2023-04-06T01:04:37;27.13;;;12.18;;
77350;SDS011;66420;50.246;14.320;2023-04-06T01:11:03;25.50;;;11.30;;
77350;SDS011;66420;50.246;14.320;2023-04-06T01:13:47;23.92;;;11.02;;
77350;SDS011;66420;50.246;14.320;2023-04-06T01:16:32;22.05;;;10.27;;
77350;SDS011;66420;50.246;14.320;2023-04-06T01:19:17;24.38;;;11.57;;
77350;SDS011;66420;50.246;14.320;2023-04-06T01:22:02;29.08;;;12.93;;
77350;SDS011;66420;50.246;14.320;2023-04-06T01:24:47;23.20;;;10.68;;
77350;SDS011;66420;50.246;14.320;2023-04-06T01:27:32;22.42;;;10.32;;
77350;SDS011;66420;50.246;14.320;2023-04-06T01:30:17;23.38;;;10.95;;
77350;SDS011;66420;50.246;14.320;2023-04-06T01:33:02;24.10;;;11.02;;
77350;SDS011;66420;50.246;14.320;2023-04-06T01:35:46;23.63;;;11.68;;
77350;SDS011;66420;50.246;14.320;2023-04-06T01:38:31;24.15;;;10.75;;
77350;SDS011;66420;50.246;14.320;2023-04-06T01:41:15;25.35;;;10.65;;
77350;SDS011;66420;50.246;14.320;2023-04-06T01:44:00;27.20;;;12.75;;
77350;SDS011;66420;50.246;14.320;2023-04-06T01:46:46;26.27;;;12.32;;
77350;SDS011;66420;50.246;14.320;2023-04-06T01:49:30;29.08;;;13.15;;
77350;SDS011;66420;50.246;14.320;2023-04-06T01:52:15;27.35;;;12.35;;
77350;SDS011;66420;50.246;14.320;2023-04-06T01:55:00;27.15;;;12.63;;
77350;SDS011;66420;50.246;14.320;2023-04-06T01:57:44;22.55;;;10.13;;
77350;SDS011;66420;50.246;14.320;2023-04-06T02:00:29;25.33;;;11.68;;
77350;SDS011;66420;50.246;14.320;2023-04-06T02:03:14;23.55;;;11.68;;
77350;SDS011;66420;50.246;14.320;2023-04-06T02:05:59;26.17;;;12.57;;
77350;SDS011;66420;50.246;14.320;2023-04-06T02:08:44;22.80;;;10.02;;
77350;SDS011;66420;50.246;14.320;2023-04-06T02:11:28;24.27;;;10.32;;
77350;SDS011;66420;50.246;14.320;2023-04-06T02:14:14;23.73;;;10.65;;
77350;SDS011;66420;50.246;14.320;2023-04-06T02:16:59;21.08;;;9.82;;
77350;SDS011;66420;50.246;14.320;2023-04-06T02:19:44;22.52;;;10.35;;
77350;SDS011;66420;50.246;14.320;2023-04-06T02:22:28;23.08;;;10.57;;
77350;SDS011;66420;50.246;14.320;2023-04-06T02:25:13;19.42;;;9.18;;
77350;SDS011;66420;50.246;14.320;2023-04-06T02:27:58;23.63;;;11.52;;
77350;SDS011;66420;50.246;14.320;2023-04-06T02:30:43;18.60;;;9.07;;
77350;SDS011;66420;50.246;14.320;2023-04-06T02:33:28;22.40;;;10.68;;
77350;SDS011;66420;50.246;14.320;2023-04-06T02:36:13;20.35;;;9.00;;
77350;SDS011;66420;50.246;14.320;2023-04-06T02:38:57;22.45;;;10.25;;
77350;SDS011;66420;50.246;14.320;2023-04-06T02:41:42;26.80;;;11.25;;
77350;SDS011;66420;50.246;14.320;2023-04-06T02:44:27;22.45;;;11.73;;
77350;SDS011;66420;50.246;14.320;2023-04-06T02:47:12;23.15;;;10.73;;
77350;SDS011;66420;50.246;14.320;2023-04-06T02:49:57;23.60;;;9.80;;
77350;SDS011;66420;50.246;14.320;2023-04-06T02:52:42;18.88;;;10.23;;
77350;SDS011;66420;50.246;14.320;2023-04-06T02:55:27;22.40;;;10.77;;
77350;SDS011;66420;50.246;14.320;2023-04-06T02:58:11;18.80;;;9.18;;
77350;SDS011;66420;50.246;14.320;2023-04-06T03:00:56;23.88;;;10.65;;
77350;SDS011;66420;50.246;14.320;2023-04-06T03:03:41;20.00;;;9.88;;
77350;SDS011;66420;50.246;14.320;2023-04-06T03:06:25;19.50;;;10.45;;
77350;SDS011;66420;50.246;14.320;2023-04-06T03:09:10;23.27;;;10.00;;
77350;SDS011;66420;50.246;14.320;2023-04-06T03:11:55;23.17;;;10.40;;
77350;SDS011;66420;50.246;14.320;2023-04-06T03:14:43;22.42;;;10.20;;
77350;SDS011;66420;50.246;14.320;2023-04-06T03:17:31;22.75;;;10.38;;
77350;SDS011;66420;50.246;14.320;2023-04-06T03:20:15;26.60;;;11.65;;
77350;SDS011;66420;50.246;14.320;2023-04-06T03:23:00;21.35;;;10.18;;
77350;SDS011;66420;50.246;14.320;2023-04-06T03:25:45;22.58;;;11.95;;
77350;SDS011;66420;50.246;14.320;2023-04-06T03:28:29;25.35;;;11.15;;
77350;SDS011;66420;50.246;14.320;2023-04-06T03:31:14;26.55;;;12.38;;
77350;SDS011;66420;50.246;14.320;2023-04-06T03:33:59;23.55;;;10.68;;
77350;SDS011;66420;50.246;14.320;2023-04-06T03:36:44;25.48;;;11.32;;
77350;SDS011;66420;50.246;14.320;2023-04-06T03:39:28;24.73;;;10.55;;
77350;SDS011;66420;50.246;14.320;2023-04-06T03:45:55;24.77;;;10.65;;
77350;SDS011;66420;50.246;14.320;2023-04-06T03:48:40;23.75;;;10.77;;
77350;SDS011;66420;50.246;14.320;2023-04-06T03:51:25;23.02;;;10.35;;
77350;SDS011;66420;50.246;14.320;2023-04-06T03:54:10;26.92;;;11.38;;
77350;SDS011;66420;50.246;14.320;2023-04-06T03:56:54;22.90;;;10.52;;
77350;SDS011;66420;50.246;14.320;2023-04-06T03:59:39;24.80;;;12.77;;
77350;SDS011;66420;50.246;14.320;2023-04-06T04:02:24;24.73;;;12.13;;
77350;SDS011;66420;50.246;14.320;2023-04-06T04:05:09;26.98;;;13.02;;
77350;SDS011;66420;50.246;14.320;2023-04-06T04:07:54;28.40;;;12.43;;
77350;SDS011;66420;50.246;14.320;2023-04-06T04:10:39;25.42;;;11.98;;
77350;SDS011;66420;50.246;14.320;2023-04-06T04:13:24;29.65;;;12.43;;
77350;SDS011;66420;50.246;14.320;2023-04-06T04:16:09;27.33;;;11.32;;
77350;SDS011;66420;50.246;14.320;2023-04-06T04:18:54;26.27;;;12.55;;
77350;SDS011;66420;50.246;14.320;2023-04-06T04:21:42;27.20;;;12.27;;
77350;SDS011;66420;50.246;14.320;2023-04-06T04:24:29;23.55;;;11.50;;
77350;SDS011;66420;50.246;14.320;2023-04-06T04:27:14;27.45;;;12.55;;
77350;SDS011;66420;50.246;14.320;2023-04-06T04:29:59;24.85;;;11.63;;
77350;SDS011;66420;50.246;14.320;2023-04-06T04:32:44;25.75;;;12.07;;
77350;SDS011;66420;50.246;14.320;2023-04-06T04:35:29;25.95;;;11.30;;
77350;SDS011;66420;50.246;14.320;2023-04-06T04:38:14;25.88;;;11.30;;
77350;SDS011;66420;50.246;14.320;2023-04-06T04:40:59;29.52;;;11.52;;
77350;SDS011;66420;50.246;14.320;2023-04-06T04:43:44;25.92;;;12.15;;
77350;SDS011;66420;50.246;14.320;2023-04-06T04:46:28;30.05;;;10.93;;
77350;SDS011;66420;50.246;14.320;2023-04-06T04:49:13;26.08;;;11.15;;
77350;SDS011;66420;50.246;14.320;2023-04-06T04:51:58;26.17;;;13.30;;
77350;SDS011;66420;50.246;14.320;2023-04-06T04:54:43;28.90;;;13.00;;
77350;SDS011;66420;50.246;14.320;2023-04-06T04:57:28;27.23;;;12.80;;
77350;SDS011;66420;50.246;14.320;2023-04-06T05:00:13;27.10;;;12.48;;
77350;SDS011;66420;50.246;14.320;2023-04-06T05:02:58;26.15;;;12.65;;
77350;SDS011;66420;50.246;14.320;2023-04-06T05:05:43;27.08;;;11.70;;
77350;SDS011;66420;50.246;14.320;2023-04-06T05:08:28;22.90;;;11.25;;
77350;SDS011;66420;50.246;14.320;2023-04-06T05:11:13;25.17;;;10.70;;
77350;SDS011;66420;50.246;14.320;2023-04-06T05:13:57;24.67;;;11.50;;
77350;SDS011;66420;50.246;14.320;2023-04-06T05:16:43;26.27;;;12.32;;
77350;SDS011;66420;50.246;14.320;2023-04-06T05:19:29;29.65;;;12.43;;
77350;SDS011;66420;50.246;14.320;2023-04-06T05:22:14;25.35;;;10.93;;
77350;SDS011;66420;50.246;14.320;2023-04-06T05:25:02;27.65;;;12.40;;
77350;SDS011;66420;50.246;14.320;2023-04-06T05:27:47;24.13;;;11.52;;
77350;SDS011;66420;50.246;14.320;2023-04-06T05:30:32;31.98;;;12.90;;
77350;SDS011;66420;50.246;14.320;2023-04-06T05:33:17;32.20;;;12.75;;
77350;SDS011;66420;50.246;14.320;2023-04-06T05:36:02;34.00;;;12.50;;
77350;SDS011;66420;50.246;14.320;2023-04-06T05:38:49;26.27;;;11.80;;
77350;SDS011;66420;50.246;14.320;2023-04-06T05:41:35;25.40;;;11.15;;
77350;SDS011;66420;50.246;14.320;2023-04-06T05:44:20;23.48;;;11.25;;
77350;SDS011;66420;50.246;14.320;2023-04-06T05:47:05;26.20;;;11.73;;
77350;SDS011;66420;50.246;14.320;2023-04-06T05:49:50;23.88;;;11.75;;
77350;SDS011;66420;50.246;14.320;2023-04-06T05:52:34;22.13;;;11.38;;
77350;SDS011;66420;50.246;14.320;2023-04-06T05:55:19;24.75;;;10.70;;
77350;SDS011;66420;50.246;14.320;2023-04-06T05:58:04;22.20;;;11.15;;
77350;SDS011;66420;50.246;14.320;2023-04-06T06:00:49;24.50;;;11.68;;
77350;SDS011;66420;50.246;14.320;2023-04-06T06:03:34;22.67;;;10.52;;
77350;SDS011;66420;50.246;14.320;2023-04-06T06:06:18;23.83;;;11.43;;
77350;SDS011;66420;50.246;14.320;2023-04-06T06:09:03;20.40;;;9.85;;
77350;SDS011;66420;50.246;14.320;2023-04-06T06:11:48;23.85;;;11.00;;
77350;SDS011;66420;50.246;14.320;2023-04-06T06:14:34;23.70;;;11.20;;
77350;SDS011;66420;50.246;14.320;2023-04-06T06:17:19;33.50;;;12.63;;
77350;SDS011;66420;50.246;14.320;2023-04-06T06:20:05;37.53;;;14.68;;
77350;SDS011;66420;50.246;14.320;2023-04-06T06:22:51;29.60;;;15.13;;
77350;SDS011;66420;50.246;14.320;2023-04-06T06:25:36;29.02;;;13.80;;
77350;SDS011;66420;50.246;14.320;2023-04-06T06:28:21;26.50;;;14.25;;
77350;SDS011;66420;50.246;14.320;2023-04-06T06:31:06;31.27;;;15.52;;
77350;SDS011;66420;50.246;14.320;2023-04-06T06:33:52;27.88;;;13.70;;
77350;SDS011;66420;50.246;14.320;2023-04-06T06:36:37;30.55;;;13.50;;
77350;SDS011;66420;50.246;14.320;2023-04-06T06:39:22;36.90;;;14.35;;
77350;SDS011;66420;50.246;14.320;2023-04-06T06:42:07;26.98;;;13.18;;
77350;SDS011;66420;50.246;14.320;2023-04-06T06:44:52;24.73;;;12.25;;
77350;SDS011;66420;50.246;14.320;2023-04-06T06:47:37;28.13;;;12.65;;
77350;SDS011;66420;50.246;14.320;2023-04-06T06:50:21;26.40;;;11.73;;
77350;SDS011;66420;50.246;14.320;2023-04-06T06:53:06;25.38;;;11.85;;
77350;SDS011;66420;50.246;14.320;2023-04-06T06:55:51;24.23;;;12.45;;
77350;SDS011;66420;50.246;14.320;2023-04-06T06:58:36;27.42;;;13.63;;
77350;SDS011;66420;50.246;14.320;2023-04-06T07:01:21;24.15;;;11.25;;
77350;SDS011;66420;50.246;14.320;2023-04-06T07:04:05;21.90;;;11.82;;
77350;SDS011;66420;50.246;14.320;2023-04-06T07:06:51;22.85;;;10.52;;
77350;SDS011;66420;50.246;14.320;2023-04-06T07:09:36;20.98;;;10.25;;
77350;SDS011;66420;50.246;14.320;2023-04-06T07:12:21;23.13;;;11.10;;
77350;SDS011;66420;50.246;14.320;2023-04-06T07:15:06;21.55;;;10.13;;
77350;SDS011;66420;50.246;14.320;2023-04-06T07:17:51;19.17;;;10.52;;
77350;SDS011;66420;50.246;14.320;2023-04-06T07:20:38;25.55;;;13.27;;
77350;SDS011;66420;50.246;14.320;2023-04-06T07:23:23;20.70;;;10.35;;
77350;SDS011;66420;50.246;14.320;2023-04-06T07:26:08;19.95;;;10.63;;
77350;SDS011;66420;50.246;14.320;2023-04-06T07:28:54;21.52;;;10.05;;
77350;SDS011;66420;50.246;14.320;2023-04-06T07:31:38;25.63;;;12.07;;
77350;SDS011;66420;50.246;14.320;2023-04-06T07:34:23;22.40;;;10.93;;
77350;SDS011;66420;50.246;14.320;2023-04-06T07:37:08;21.85;;;10.35;;
77350;SDS011;66420;50.246;14.320;2023-04-06T07:39:52;22.70;;;11.55;;
77350;SDS011;66420;50.246;14.320;2023-04-06T07:42:37;22.48;;;10.90;;
77350;SDS011;66420;50.246;14.320;2023-04-06T07:45:22;22.55;;;10.35;;
77350;SDS011;66420;50.246;14.320;2023-04-06T07:48:07;19.52;;;9.25;;
77350;SDS011;66420;50.246;14.320;2023-04-06T07:50:52;19.70;;;9.63;;
77350;SDS011;66420;50.246;14.320;2023-04-06T07:53:45;15.70;;;8.65;;
77350;SDS011;66420;50.246;14.320;2023-04-06T07:56:29;16.67;;;9.00;;
77350;SDS011;66420;50.246;14.320;2023-04-06T07:59:14;19.13;;;8.73;;
77350;SDS011;66420;50.246;14.320;2023-04-06T08:01:59;21.63;;;9.13;;
77350;SDS011;66420;50.246;14.320;2023-04-06T08:04:44;20.70;;;9.10;;
77350;SDS011;66420;50.246;14.320;2023-04-06T08:07:32;17.23;;;8.75;;
77350;SDS011;66420;50.246;14.320;2023-04-06T08:10:16;14.02;;;6.28;;
77350;SDS011;66420;50.246;14.320;2023-04-06T08:13:01;12.07;;;6.18;;
77350;SDS011;66420;50.246;14.320;2023-04-06T08:15:46;11.15;;;6.43;;
77350;SDS011;66420;50.246;14.320;2023-04-06T08:18:30;13.60;;;7.10;;
77350;SDS011;66420;50.246;14.320;2023-04-06T08:21:15;16.80;;;8.65;;
77350;SDS011;66420;50.246;14.320;2023-04-06T08:24:00;11.98;;;7.60;;
77350;SDS011;66420;50.246;14.320;2023-04-06T08:26:45;11.98;;;6.30;;
77350;SDS011;66420;50.246;14.320;2023-04-06T08:29:30;10.77;;;7.22;;
77350;SDS011;66420;50.246;14.320;2023-04-06T08:32:15;13.30;;;6.38;;
77350;SDS011;66420;50.246;14.320;2023-04-06T08:35:00;12.38;;;6.50;;
77350;SDS011;66420;50.246;14.320;2023-04-06T08:37:44;11.95;;;6.35;;
77350;SDS011;66420;50.246;14.320;2023-04-06T08:40:29;12.77;;;6.15;;
77350;SDS011;66420;50.246;14.320;2023-04-06T08:43:14;15.00;;;7.32;;
77350;SDS011;66420;50.246;14.320;2023-04-06T08:46:04;14.82;;;7.25;;
77350;SDS011;66420;50.246;14.320;2023-04-06T08:52:31;14.45;;;7.10;;
77350;SDS011;66420;50.246;14.320;2023-04-06T08:55:20;18.27;;;7.00;;
77350;SDS011;66420;50.246;14.320;2023-04-06T08:58:06;14.77;;;6.35;;
77350;SDS011;66420;50.246;14.320;2023-04-06T09:00:52;13.00;;;6.68;;
77350;SDS011;66420;50.246;14.320;2023-04-06T09:03:38;10.68;;;5.90;;
77350;SDS011;66420;50.246;14.320;2023-04-06T09:06:36;13.30;;;6.75;;
77350;SDS011;66420;50.246;14.320;2023-04-06T09:09:21;11.20;;;6.38;;
77350;SDS011;66420;50.246;14.320;2023-04-06T09:12:09;13.88;;;6.38;;
77350;SDS011;66420;50.246;14.320;2023-04-06T09:14:56;14.05;;;6.18;;
77350;SDS011;66420;50.246;14.320;2023-04-06T09:17:43;15.82;;;6.13;;
77350;SDS011;66420;50.246;14.320;2023-04-06T09:20:27;11.27;;;5.68;;
77350;SDS011;66420;50.246;14.320;2023-04-06T09:23:19;9.18;;;5.45;;
77350;SDS011;66420;50.246;14.320;2023-04-06T09:26:08;11.95;;;5.45;;
77350;SDS011;66420;50.246;14.320;2023-04-06T09:28:54;13.10;;;5.65;;
77350;SDS011;66420;50.246;14.320;2023-04-06T09:31:40;9.45;;;5.05;;
77350;SDS011;66420;50.246;14.320;2023-04-06T09:34:24;8.38;;;4.55;;
77350;SDS011;66420;50.246;14.320;2023-04-06T09:37:15;10.30;;;5.03;;
77350;SDS011;66420;50.246;14.320;2023-04-06T09:40:05;7.63;;;4.20;;
77350;SDS011;66420;50.246;14.320;2023-04-06T09:42:54;9.43;;;4.60;;
77350;SDS011;66420;50.246;14.320;2023-04-06T09:45:41;8.52;;;3.95;;
77350;SDS011;66420;50.246;14.320;2023-04-06T09:48:26;12.10;;;5.07;;
77350;SDS011;66420;50.246;14.320;2023-04-06T09:51:14;8.75;;;4.43;;
77350;SDS011;66420;50.246;14.320;2023-04-06T09:54:02;7.80;;;4.45;;
77350;SDS011;66420;50.246;14.320;2023-04-06T09:57:00;9.45;;;4.55;;
77350;SDS011;66420;50.246;14.320;2023-04-06T10:07:19;14.02;;;5.65;;
77350;SDS011;66420;50.246;14.320;2023-04-06T10:10:10;11.70;;;5.00;;
77350;SDS011;66420;50.246;14.320;2023-04-06T10:12:56;11.05;;;4.18;;
77350;SDS011;66420;50.246;14.320;2023-04-06T10:15:42;9.65;;;4.95;;
77350;SDS011;66420;50.246;14.320;2023-04-06T10:18:27;9.60;;;4.97;;
77350;SDS011;66420;50.246;14.320;2023-04-06T10:21:12;9.18;;;4.40;;
77350;SDS011;66420;50.246;14.320;2023-04-06T10:24:06;8.82;;;4.32;;
77350;SDS011;66420;50.246;14.320;2023-04-06T10:26:56;7.15;;;3.92;;
77350;SDS011;66420;50.246;14.320;2023-04-06T10:29:50;6.63;;;4.30;;
77350;SDS011;66420;50.246;14.320;2023-04-06T10:32:38;8.40;;;3.67;;
77350;SDS011;66420;50.246;14.320;2023-04-06T10:35:24;8.68;;;4.28;;
77350;SDS011;66420;50.246;14.320;2023-04-06T10:38:20;6.55;;;3.53;;
77350;SDS011;66420;50.246;14.320;2023-04-06T10:41:10;6.57;;;3.45;;
77350;SDS011;66420;50.246;14.320;2023-04-06T10:43:56;6.68;;;3.28;;
77350;SDS011;66420;50.246;14.320;2023-04-06T10:46:41;5.93;;;3.80;;
77350;SDS011;66420;50.246;14.320;2023-04-06T10:49:40;6.43;;;4.07;;
77350;SDS011;66420;50.246;14.320;2023-04-06T10:52:24;7.00;;;3.95;;
77350;SDS011;66420;50.246;14.320;2023-04-06T10:55:09;11.05;;;3.90;;
77350;SDS011;66420;50.246;14.320;2023-04-06T10:57:54;6.65;;;3.97;;
77350;SDS011;66420;50.246;14.320;2023-04-06T11:00:48;6.10;;;3.50;;
77350;SDS011;66420;50.246;14.320;2023-04-06T11:03:42;5.38;;;3.42;;
77350;SDS011;66420;50.246;14.320;2023-04-06T11:06:30;7.32;;;3.92;;
77350;SDS011;66420;50.246;14.320;2023-04-06T11:12:19;6.03;;;3.78;;
77350;SDS011;66420;50.246;14.320;2023-04-06T11:15:09;6.28;;;3.60;;
77350;SDS011;66420;50.246;14.320;2023-04-06T11:17:54;6.50;;;3.78;;
77350;SDS011;66420;50.246;14.320;2023-04-06T11:20:38;7.60;;;4.38;;
77350;SDS011;66420;50.246;14.320;2023-04-06T11:23:24;6.57;;;3.95;;
77350;SDS011;66420;50.246;14.320;2023-04-06T11:26:12;8.60;;;4.32;;
77350;SDS011;66420;50.246;14.320;2023-04-06T11:28:58;7.63;;;3.90;;
77350;SDS011;66420;50.246;14.320;2023-04-06T11:31:50;7.78;;;3.67;;
77350;SDS011;66420;50.246;14.320;2023-04-06T11:34:41;5.63;;;3.90;;
77350;SDS011;66420;50.246;14.320;2023-04-06T11:37:26;6.28;;;3.90;;
77350;SDS011;66420;50.246;14.320;2023-04-06T11:40:12;8.35;;;4.10;;
77350;SDS011;66420;50.246;14.320;2023-04-06T11:42:57;7.88;;;3.92;;
77350;SDS011;66420;50.246;14.320;2023-04-06T11:45:42;8.63;;;4.50;;
77350;SDS011;66420;50.246;14.320;2023-04-06T11:52:18;7.65;;;4.00;;
77350;SDS011;66420;50.246;14.320;2023-04-06T11:55:14;7.25;;;3.92;;
77350;SDS011;66420;50.246;14.320;2023-04-06T11:58:02;5.75;;;3.60;;
77350;SDS011;66420;50.246;14.320;2023-04-06T12:00:47;6.03;;;3.78;;
77350;SDS011;66420;50.246;14.320;2023-04-06T12:03:32;5.40;;;3.50;;
77350;SDS011;66420;50.246;14.320;2023-04-06T12:06:17;7.05;;;3.80;;
77350;SDS011;66420;50.246;14.320;2023-04-06T12:09:02;7.68;;;4.07;;
77350;SDS011;66420;50.246;14.320;2023-04-06T12:11:46;5.63;;;3.95;;
77350;SDS011;66420;50.246;14.320;2023-04-06T12:14:31;8.07;;;3.95;;
77350;SDS011;66420;50.246;14.320;2023-04-06T12:17:18;7.55;;;4.18;;
77350;SDS011;66420;50.246;14.320;2023-04-06T12:20:04;8.50;;;3.65;;
77350;SDS011;66420;50.246;14.320;2023-04-06T12:22:49;6.00;;;3.85;;
77350;SDS011;66420;50.246;14.320;2023-04-06T12:25:34;9.18;;;5.13;;
77350;SDS011;66420;50.246;14.320;2023-04-06T12:28:20;7.82;;;4.75;;
77350;SDS011;66420;50.246;14.320;2023-04-06T12:31:07;8.48;;;4.45;;
77350;SDS011;66420;50.246;14.320;2023-04-06T12:33:58;7.35;;;4.35;;
77350;SDS011;66420;50.246;14.320;2023-04-06T12:36:44;8.75;;;4.70;;
77350;SDS011;66420;50.246;14.320;2023-04-06T12:39:28;8.02;;;5.00;;
77350;SDS011;66420;50.246;14.320;2023-04-06T12:42:14;6.80;;;4.63;;
77350;SDS011;66420;50.246;14.320;2023-04-06T12:44:59;8.88;;;4.60;;
77350;SDS011;66420;50.246;14.320;2023-04-06T12:47:45;7.10;;;4.20;;
77350;SDS011;66420;50.246;14.320;2023-04-06T12:50:30;6.88;;;4.10;;
77350;SDS011;66420;50.246;14.320;2023-04-06T12:53:15;7.35;;;4.28;;
77350;SDS011;66420;50.246;14.320;2023-04-06T12:56:00;6.55;;;4.55;;
77350;SDS011;66420;50.246;14.320;2023-04-06T12:58:46;9.52;;;4.45;;
77350;SDS011;66420;50.246;14.320;2023-04-06T13:01:31;7.45;;;4.07;;
77350;SDS011;66420;50.246;14.320;2023-04-06T13:04:16;6.95;;;4.88;;
77350;SDS011;66420;50.246;14.320;2023-04-06T13:07:01;10.13;;;4.70;;
77350;SDS011;66420;50.246;14.320;2023-04-06T13:14:50;7.65;;;4.55;;
77350;SDS011;66420;50.246;14.320;2023-04-06T13:17:35;6.95;;;4.22;;
77350;SDS011;66420;50.246;14.320;2023-04-06T13:20:19;6.85;;;4.18;;
77350;SDS011;66420;50.246;14.320;2023-04-06T13:23:05;6.00;;;3.63;;
77350;SDS011;66420;50.246;14.320;2023-04-06T13:25:56;6.85;;;3.72;;
77350;SDS011;66420;50.246;14.320;2023-04-06T13:28:48;8.55;;;3.70;;
77350;SDS011;66420;50.246;14.320;2023-04-06T13:31:33;6.05;;;3.92;;
77350;SDS011;66420;50.246;14.320;2023-04-06T13:34:18;7.03;;;3.92;;
77350;SDS011;66420;50.246;14.320;2023-04-06T13:37:03;8.32;;;4.85;;
77350;SDS011;66420;50.246;14.320;2023-04-06T13:39:47;7.05;;;4.07;;
77350;SDS011;66420;50.246;14.320;2023-04-06T13:42:32;5.30;;;3.40;;
77350;SDS011;66420;50.246;14.320;2023-04-06T13:45:19;7.80;;;3.88;;
77350;SDS011;66420;50.246;14.320;2023-04-06T13:51:45;8.82;;;4.05;;
77350;SDS011;66420;50.246;14.320;2023-04-06T13:58:19;6.93;;;3.83;;
77350;SDS011;66420;50.246;14.320;2023-04-06T14:01:05;7.90;;;4.10;;
77350;SDS011;66420;50.246;14.320;2023-04-06T14:03:51;5.82;;;3.70;;
77350;SDS011;66420;50.246;14.320;2023-04-06T14:06:36;7.38;;;4.40;;
77350;SDS011;66420;50.246;14.320;2023-04-06T14:09:21;7.95;;;4.53;;
77350;SDS011;66420;50.246;14.320;2023-04-06T14:12:06;7.60;;;4.10;;
77350;SDS011;66420;50.246;14.320;2023-04-06T14:14:51;7.28;;;3.97;;
77350;SDS011;66420;50.246;14.320;2023-04-06T14:27:45;7.57;;;4.43;;
77350;SDS011;66420;50.246;14.320;2023-04-06T14:30:30;6.85;;;4.18;;
77350;SDS011;66420;50.246;14.320;2023-04-06T14:33:15;6.53;;;4.40;;
77350;SDS011;66420;50.246;14.320;2023-04-06T14:36:04;7.93;;;4.60;;
77350;SDS011;66420;50.246;14.320;2023-04-06T14:38:49;8.32;;;4.32;;
77350;SDS011;66420;50.246;14.320;2023-04-06T14:41:34;9.65;;;4.50;;
77350;SDS011;66420;50.246;14.320;2023-04-06T14:44:19;10.60;;;4.70;;
77350;SDS011;66420;50.246;14.320;2023-04-06T14:47:05;10.52;;;4.22;;
77350;SDS011;66420;50.246;14.320;2023-04-06T14:49:50;7.28;;;4.20;;
77350;SDS011;66420;50.246;14.320;2023-04-06T14:52:35;6.18;;;4.60;;
77350;SDS011;66420;50.246;14.320;2023-04-06T14:55:20;9.23;;;4.18;;
77350;SDS011;66420;50.246;14.320;2023-04-06T14:58:05;7.00;;;4.28;;
77350;SDS011;66420;50.246;14.320;2023-04-06T15:00:54;6.60;;;4.15;;
77350;SDS011;66420;50.246;14.320;2023-04-06T15:03:42;7.78;;;4.35;;
77350;SDS011;66420;50.246;14.320;2023-04-06T15:06:27;8.60;;;4.82;;
77350;SDS011;66420;50.246;14.320;2023-04-06T15:09:11;7.18;;;4.25;;
77350;SDS011;66420;50.246;14.320;2023-04-06T15:11:56;8.82;;;4.88;;
77350;SDS011;66420;50.246;14.320;2023-04-06T15:14:41;8.18;;;4.25;;
77350;SDS011;66420;50.246;14.320;2023-04-06T15:17:26;6.70;;;4.20;;
77350;SDS011;66420;50.246;14.320;2023-04-06T15:20:11;8.85;;;4.35;;
77350;SDS011;66420;50.246;14.320;2023-04-06T15:22:56;8.68;;;3.92;;
77350;SDS011;66420;50.246;14.320;2023-04-06T15:25:41;7.40;;;4.25;;
77350;SDS011;66420;50.246;14.320;2023-04-06T15:28:26;9.45;;;4.18;;
77350;SDS011;66420;50.246;14.320;2023-04-06T15:31:17;6.53;;;4.60;;
77350;SDS011;66420;50.246;14.320;2023-04-06T15:34:07;7.13;;;4.13;;
77350;SDS011;66420;50.246;14.320;2023-04-06T15:36:52;6.82;;;3.83;;
77350;SDS011;66420;50.246;14.320;2023-04-06T15:39:37;6.60;;;4.13;;
77350;SDS011;66420;50.246;14.320;2023-04-06T15:42:22;7.10;;;4.35;;
77350;SDS011;66420;50.246;14.320;2023-04-06T15:45:06;5.53;;;3.88;;
77350;SDS011;66420;50.246;14.320;2023-04-06T15:47:51;6.32;;;3.60;;
77350;SDS011;66420;50.246;14.320;2023-04-06T15:50:36;9.13;;;3.72;;
77350;SDS011;66420;50.246;14.320;2023-04-06T15:53:21;6.30;;;3.97;;
77350;SDS011;66420;50.246;14.320;2023-04-06T15:56:05;7.15;;;3.85;;
77350;SDS011;66420;50.246;14.320;2023-04-06T15:58:52;5.63;;;3.28;;
77350;SDS011;66420;50.246;14.320;2023-04-06T16:01:37;7.75;;;3.65;;
77350;SDS011;66420;50.246;14.320;2023-04-06T16:04:24;5.90;;;3.55;;
77350;SDS011;66420;50.246;14.320;2023-04-06T16:07:09;7.65;;;3.83;;
77350;SDS011;66420;50.246;14.320;2023-04-06T16:09:54;8.52;;;3.90;;
77350;SDS011;66420;50.246;14.320;2023-04-06T16:12:39;9.40;;;3.83;;
77350;SDS011;66420;50.246;14.320;2023-04-06T16:15:25;8.50;;;4.38;;
77350;SDS011;66420;50.246;14.320;2023-04-06T16:18:10;6.88;;;3.38;;
77350;SDS011;66420;50.246;14.320;2023-04-06T16:20:55;8.25;;;4.20;;
77350;SDS011;66420;50.246;14.320;2023-04-06T16:23:40;5.85;;;3.30;;
77350;SDS011;66420;50.246;14.320;2023-04-06T16:26:25;6.93;;;3.78;;
77350;SDS011;66420;50.246;14.320;2023-04-06T16:29:10;6.10;;;3.95;;
77350;SDS011;66420;50.246;14.320;2023-04-06T16:31:55;7.75;;;3.88;;
77350;SDS011;66420;50.246;14.320;2023-04-06T16:34:39;6.93;;;3.90;;
77350;SDS011;66420;50.246;14.320;2023-04-06T16:37:25;5.32;;;3.22;;
77350;SDS011;66420;50.246;14.320;2023-04-06T16:40:10;9.70;;;3.50;;
77350;SDS011;66420;50.246;14.320;2023-04-06T16:42:55;6.80;;;3.63;;
77350;SDS011;66420;50.246;14.320;2023-04-06T16:45:40;5.07;;;3.50;;
77350;SDS011;66420;50.246;14.320;2023-04-06T16:48:25;8.20;;;4.63;;
77350;SDS011;66420;50.246;14.320;2023-04-06T16:51:10;7.38;;;3.88;;
77350;SDS011;66420;50.246;14.320;2023-04-06T16:53:55;7.68;;;4.00;;
77350;SDS011;66420;50.246;14.320;2023-04-06T16:56:40;6.60;;;3.70;;
77350;SDS011;66420;50.246;14.320;2023-04-06T16:59:26;6.47;;;3.60;;